sensor_id;sensor_type;location;lat;lon;timestamp;pressure;altitude;pressure_sealevel;temperature;humidity
49627;BME280;35527;54.616;39.786;2023-04-06T00:00:05;100302.44;;;8.02;72.38
49627;BME280;35527;54.616;39.786;2023-04-06T00:03:12;100287.22;;;7.90;72.81
49627;BME280;35527;54.616;39.786;2023-04-06T00:06:15;100297.59;;;7.87;73.10
49627;BME280;35527;54.616;39.786;2023-04-06T00:09:18;100275.47;;;7.75;73.64
49627;BME280;35527;54.616;39.786;2023-04-06T00:12:24;100288.22;;;7.84;74.01
49627;BME280;35527;54.616;39.786;2023-04-06T00:15:28;100297.69;;;7.81;74.48
49627;BME280;35527;54.616;39.786;2023-04-06T00:18:31;100290.88;;;7.78;74.89
49627;BME280;35527;54.616;39.786;2023-04-06T00:21:35;100290.03;;;7.78;75.26
49627;BME280;35527;54.616;39.786;2023-04-06T00:24:39;100286.66;;;7.76;75.02
49627;BME280;35527;54.616;39.786;2023-04-06T00:27:44;100296.91;;;7.77;75.28
49627;BME280;35527;54.616;39.786;2023-04-06T00:30:48;100293.56;;;7.74;76.01
49627;BME280;35527;54.616;39.786;2023-04-06T00:33:51;100297.94;;;7.70;76.15
49627;BME280;35527;54.616;39.786;2023-04-06T00:36:59;100295.44;;;7.65;76.54
49627;BME280;35527;54.616;39.786;2023-04-06T00:40:02;100304.13;;;7.61;77.18
49627;BME280;35527;54.616;39.786;2023-04-06T00:43:08;100298.09;;;7.61;77.11
49627;BME280;35527;54.616;39.786;2023-04-06T00:46:15;100299.94;;;7.56;77.72
49627;BME280;35527;54.616;39.786;2023-04-06T00:49:18;100293.06;;;7.55;77.67
49627;BME280;35527;54.616;39.786;2023-04-06T00:52:21;100301.69;;;7.52;77.41
49627;BME280;35527;54.616;39.786;2023-04-06T00:55:24;100300.00;;;7.53;78.07
49627;BME280;35527;54.616;39.786;2023-04-06T00:58:26;100300.84;;;7.53;78.44
49627;BME280;35527;54.616;39.786;2023-04-06T01:01:40;100278.50;;;7.52;78.14
49627;BME280;35527;54.616;39.786;2023-04-06T01:04:58;100298.28;;;7.52;78.32
49627;BME280;35527;54.616;39.786;2023-04-06T01:08:13;100294.03;;;7.49;78.42
49627;BME280;35527;54.616;39.786;2023-04-06T01:11:18;100292.41;;;7.45;78.73
49627;BME280;35527;54.616;39.786;2023-04-06T01:14:23;100296.69;;;7.44;79.39
49627;BME280;35527;54.616;39.786;2023-04-06T01:17:31;100290.72;;;7.41;79.21
49627;BME280;35527;54.616;39.786;2023-04-06T01:20:41;100298.41;;;7.89;77.87
49627;BME280;35527;54.616;39.786;2023-04-06T01:23:48;100293.25;;;7.45;79.13
49627;BME280;35527;54.616;39.786;2023-04-06T01:26:58;100297.63;;;7.40;80.03
49627;BME280;35527;54.616;39.786;2023-04-06T01:30:10;100295.94;;;7.39;80.22
49627;BME280;35527;54.616;39.786;2023-04-06T01:33:21;100293.41;;;7.36;79.94
49627;BME280;35527;54.616;39.786;2023-04-06T01:36:40;100289.19;;;7.32;80.85
49627;BME280;35527;54.616;39.786;2023-04-06T01:39:56;100296.13;;;7.29;80.77
49627;BME280;35527;54.616;39.786;2023-04-06T01:43:12;100290.97;;;7.29;81.06
49627;BME280;35527;54.616;39.786;2023-04-06T01:46:32;100289.34;;;7.25;81.53
49627;BME280;35527;54.616;39.786;2023-04-06T01:49:39;100286.00;;;7.19;81.97
49627;BME280;35527;54.616;39.786;2023-04-06T01:52:43;100284.31;;;7.18;82.68
49627;BME280;35527;54.616;39.786;2023-04-06T01:55:50;100292.09;;;7.14;83.10
49627;BME280;35527;54.616;39.786;2023-04-06T01:59:04;100298.97;;;7.12;83.26
49627;BME280;35527;54.616;39.786;2023-04-06T02:02:14;100298.13;;;7.11;83.92
49627;BME280;35527;54.616;39.786;2023-04-06T02:05:30;100296.47;;;7.09;84.56
49627;BME280;35527;54.616;39.786;2023-04-06T02:08:33;100300.81;;;7.04;84.61
49627;BME280;35527;54.616;39.786;2023-04-06T02:11:37;100296.63;;;6.99;85.57
49627;BME280;35527;54.616;39.786;2023-04-06T02:14:42;100304.44;;;6.93;86.40
49627;BME280;35527;54.616;39.786;2023-04-06T02:17:49;100297.63;;;6.89;86.29
49627;BME280;35527;54.616;39.786;2023-04-06T02:20:57;100309.81;;;6.81;87.81
49627;BME280;35527;54.616;39.786;2023-04-06T02:24:01;100301.25;;;6.77;87.80
49627;BME280;35527;54.616;39.786;2023-04-06T02:27:04;100313.28;;;6.77;88.70
49627;BME280;35527;54.616;39.786;2023-04-06T02:30:07;100325.38;;;6.70;88.52
49627;BME280;35527;54.616;39.786;2023-04-06T02:33:11;100321.16;;;6.66;89.68
49627;BME280;35527;54.616;39.786;2023-04-06T02:36:19;100328.00;;;6.66;89.90
49627;BME280;35527;54.616;39.786;2023-04-06T02:39:24;100323.81;;;6.62;89.67
49627;BME280;35527;54.616;39.786;2023-04-06T02:42:29;100331.56;;;6.59;89.97
49627;BME280;35527;54.616;39.786;2023-04-06T02:45:34;100325.53;;;6.61;90.30
49627;BME280;35527;54.616;39.786;2023-04-06T02:48:38;100330.69;;;6.61;89.90
49627;BME280;35527;54.616;39.786;2023-04-06T02:51:41;100329.78;;;6.62;90.51
49627;BME280;35527;54.616;39.786;2023-04-06T02:55:04;100335.81;;;6.61;90.83
49627;BME280;35527;54.616;39.786;2023-04-06T02:58:09;100334.88;;;6.65;90.66
49627;BME280;35527;54.616;39.786;2023-04-06T03:01:19;100334.84;;;6.68;89.47
49627;BME280;35527;54.616;39.786;2023-04-06T03:04:28;100343.34;;;6.73;90.03
49627;BME280;35527;54.616;39.786;2023-04-06T03:07:34;100343.34;;;6.72;90.29
49627;BME280;35527;54.616;39.786;2023-04-06T03:10:38;100342.47;;;6.74;89.94
49627;BME280;35527;54.616;39.786;2023-04-06T03:13:41;100351.81;;;6.82;89.00
49627;BME280;35527;54.616;39.786;2023-04-06T03:16:47;100350.91;;;6.84;89.08
49627;BME280;35527;54.616;39.786;2023-04-06T03:19:54;100345.31;;;7.13;87.90
49627;BME280;35527;54.616;39.786;2023-04-06T03:22:58;100343.47;;;7.68;84.20
49627;BME280;35527;54.616;39.786;2023-04-06T03:26:05;100356.13;;;7.80;80.43
49627;BME280;35527;54.616;39.786;2023-04-06T03:29:08;100352.31;;;7.55;80.87
49627;BME280;35527;54.616;39.786;2023-04-06T03:32:11;100356.06;;;7.37;82.06
49627;BME280;35527;54.616;39.786;2023-04-06T03:35:15;100354.66;;;7.17;84.33
49627;BME280;35527;54.616;39.786;2023-04-06T03:38:20;100355.44;;;7.21;84.36
49627;BME280;35527;54.616;39.786;2023-04-06T03:41:25;100368.31;;;7.24;84.94
49627;BME280;35527;54.616;39.786;2023-04-06T03:44:39;100363.94;;;7.26;84.59
49627;BME280;35527;54.616;39.786;2023-04-06T03:47:42;100357.91;;;7.29;85.32
49627;BME280;35527;54.616;39.786;2023-04-06T03:50:47;100352.69;;;7.32;83.91
49627;BME280;35527;54.616;39.786;2023-04-06T03:53:51;100356.22;;;7.28;84.35
49627;BME280;35527;54.616;39.786;2023-04-06T03:56:54;100357.06;;;7.30;84.23
49627;BME280;35527;54.616;39.786;2023-04-06T04:00:01;100369.59;;;7.47;83.60
49627;BME280;35527;54.616;39.786;2023-04-06T04:03:15;100368.69;;;8.42;78.63
49627;BME280;35527;54.616;39.786;2023-04-06T04:06:17;100370.84;;;8.61;73.02
49627;BME280;35527;54.616;39.786;2023-04-06T04:09:22;100380.22;;;8.23;74.10
49627;BME280;35527;54.616;39.786;2023-04-06T04:12:26;100371.91;;;8.89;72.94
49627;BME280;35527;54.616;39.786;2023-04-06T04:15:34;100377.03;;;9.28;68.42
49627;BME280;35527;54.616;39.786;2023-04-06T04:18:37;100385.66;;;9.94;67.54
49627;BME280;35527;54.616;39.786;2023-04-06T04:21:44;100376.16;;;11.12;60.92
49627;BME280;35527;54.616;39.786;2023-04-06T04:24:59;100370.53;;;11.76;57.22
49627;BME280;35527;54.616;39.786;2023-04-06T04:28:05;100376.06;;;12.16;56.03
49627;BME280;35527;54.616;39.786;2023-04-06T04:31:08;100379.88;;;12.75;53.26
49627;BME280;35527;54.616;39.786;2023-04-06T04:34:14;100373.97;;;12.94;52.71
49627;BME280;35527;54.616;39.786;2023-04-06T04:37:20;100376.69;;;13.35;51.38
49627;BME280;35527;54.616;39.786;2023-04-06T04:40:30;100383.50;;;13.15;51.07
49627;BME280;35527;54.616;39.786;2023-04-06T04:43:43;100374.19;;;12.88;51.96
49627;BME280;35527;54.616;39.786;2023-04-06T04:46:51;100377.88;;;13.04;51.41
49627;BME280;35527;54.616;39.786;2023-04-06T04:50:00;100380.34;;;13.71;49.43
49627;BME280;35527;54.616;39.786;2023-04-06T04:53:07;100386.59;;;14.07;48.87
49627;BME280;35527;54.616;39.786;2023-04-06T04:56:12;100384.25;;;14.78;47.21
49627;BME280;35527;54.616;39.786;2023-04-06T04:59:16;100384.00;;;15.53;45.32
49627;BME280;35527;54.616;39.786;2023-04-06T05:02:28;100391.41;;;15.63;44.34
49627;BME280;35527;54.616;39.786;2023-04-06T05:05:46;100391.38;;;15.97;44.28
49627;BME280;35527;54.616;39.786;2023-04-06T05:08:53;100395.47;;;16.19;42.81
49627;BME280;35527;54.616;39.786;2023-04-06T05:12:00;100400.88;;;16.48;42.92
49627;BME280;35527;54.616;39.786;2023-04-06T05:15:08;100390.97;;;16.54;41.22
49627;BME280;35527;54.616;39.786;2023-04-06T05:18:12;100395.81;;;17.24;41.27
49627;BME280;35527;54.616;39.786;2023-04-06T05:21:15;100396.78;;;17.07;40.02
49627;BME280;35527;54.616;39.786;2023-04-06T05:24:36;100408.44;;;17.01;40.30
49627;BME280;35527;54.616;39.786;2023-04-06T05:27:42;100401.22;;;17.51;40.72
49627;BME280;35527;54.616;39.786;2023-04-06T05:31:03;100408.66;;;18.73;37.88
49627;BME280;35527;54.616;39.786;2023-04-06T05:34:13;100412.69;;;18.64;37.50
49627;BME280;35527;54.616;39.786;2023-04-06T05:37:17;100402.19;;;17.94;39.10
49627;BME280;35527;54.616;39.786;2023-04-06T05:40:23;100401.63;;;18.04;38.85
49627;BME280;35527;54.616;39.786;2023-04-06T05:43:30;100405.44;;;17.84;38.06
49627;BME280;35527;54.616;39.786;2023-04-06T05:46:35;100403.59;;;17.70;38.77
49627;BME280;35527;54.616;39.786;2023-04-06T05:49:41;100408.19;;;17.66;38.89
49627;BME280;35527;54.616;39.786;2023-04-06T05:52:51;100413.38;;;18.54;37.28
49627;BME280;35527;54.616;39.786;2023-04-06T05:56:01;100407.03;;;18.43;36.85
49627;BME280;35527;54.616;39.786;2023-04-06T05:59:03;100412.81;;;17.47;38.60
49627;BME280;35527;54.616;39.786;2023-04-06T06:02:08;100416.09;;;17.81;38.28
49627;BME280;35527;54.616;39.786;2023-04-06T06:05:15;100411.44;;;17.86;38.91
49627;BME280;35527;54.616;39.786;2023-04-06T06:08:22;100405.34;;;17.85;38.08
49627;BME280;35527;54.616;39.786;2023-04-06T06:11:26;100412.16;;;18.45;37.28
49627;BME280;35527;54.616;39.786;2023-04-06T06:14:30;100414.53;;;18.91;36.31
49627;BME280;35527;54.616;39.786;2023-04-06T06:17:32;100421.78;;;18.87;36.32
49627;BME280;35527;54.616;39.786;2023-04-06T06:20:37;100416.47;;;18.60;37.00
49627;BME280;35527;54.616;39.786;2023-04-06T06:23:44;100419.19;;;19.67;35.57
49627;BME280;35527;54.616;39.786;2023-04-06T06:26:50;100419.66;;;20.12;34.17
49627;BME280;35527;54.616;39.786;2023-04-06T06:30:01;100417.53;;;20.17;33.67
49627;BME280;35527;54.616;39.786;2023-04-06T06:33:08;100426.47;;;20.02;33.84
49627;BME280;35527;54.616;39.786;2023-04-06T06:36:13;100427.81;;;20.33;34.28
49627;BME280;35527;54.616;39.786;2023-04-06T06:39:17;100427.44;;;21.00;32.56
49627;BME280;35527;54.616;39.786;2023-04-06T06:42:24;100426.00;;;20.59;32.82
49627;BME280;35527;54.616;39.786;2023-04-06T06:45:55;100417.50;;;20.30;33.82
49627;BME280;35527;54.616;39.786;2023-04-06T06:48:58;100422.97;;;20.89;32.98
49627;BME280;35527;54.616;39.786;2023-04-06T06:52:01;100428.47;;;21.10;32.88
49627;BME280;35527;54.616;39.786;2023-04-06T06:55:04;100424.41;;;21.77;31.56
49627;BME280;35527;54.616;39.786;2023-04-06T06:58:11;100431.59;;;21.15;32.59
49627;BME280;35527;54.616;39.786;2023-04-06T07:01:13;100425.38;;;20.92;32.08
49627;BME280;35527;54.616;39.786;2023-04-06T07:04:17;100422.13;;;21.37;32.09
49627;BME280;35527;54.616;39.786;2023-04-06T07:07:19;100432.97;;;20.35;33.48
49627;BME280;35527;54.616;39.786;2023-04-06T07:10:23;100416.81;;;21.02;31.91
49627;BME280;35527;54.616;39.786;2023-04-06T07:13:25;100421.34;;;21.24;31.83
49627;BME280;35527;54.616;39.786;2023-04-06T07:16:35;100430.94;;;22.07;31.53
49627;BME280;35527;54.616;39.786;2023-04-06T07:19:38;100434.56;;;21.35;30.61
49627;BME280;35527;54.616;39.786;2023-04-06T07:22:42;100431.09;;;21.70;31.07
49627;BME280;35527;54.616;39.786;2023-04-06T07:25:46;100416.41;;;21.78;30.91
49627;BME280;35527;54.616;39.786;2023-04-06T07:28:50;100429.47;;;21.21;31.68
49627;BME280;35527;54.616;39.786;2023-04-06T07:31:56;100429.66;;;21.77;30.47
49627;BME280;35527;54.616;39.786;2023-04-06T07:35:02;100434.94;;;20.93;31.37
49627;BME280;35527;54.616;39.786;2023-04-06T07:38:05;100421.13;;;20.66;32.17
49627;BME280;35527;54.616;39.786;2023-04-06T07:41:11;100426.47;;;20.77;31.75
49627;BME280;35527;54.616;39.786;2023-04-06T07:44:14;100424.69;;;21.96;30.42
49627;BME280;35527;54.616;39.786;2023-04-06T07:47:26;100425.88;;;21.92;31.26
49627;BME280;35527;54.616;39.786;2023-04-06T07:50:28;100429.78;;;21.64;31.50
49627;BME280;35527;54.616;39.786;2023-04-06T07:53:33;100429.81;;;21.75;31.54
49627;BME280;35527;54.616;39.786;2023-04-06T07:56:36;100434.00;;;21.19;30.96
49627;BME280;35527;54.616;39.786;2023-04-06T07:59:39;100433.47;;;20.65;32.81
49627;BME280;35527;54.616;39.786;2023-04-06T08:02:42;100421.25;;;21.01;32.65
49627;BME280;35527;54.616;39.786;2023-04-06T08:05:45;100419.44;;;22.64;30.40
49627;BME280;35527;54.616;39.786;2023-04-06T08:08:49;100421.16;;;22.86;29.97
49627;BME280;35527;54.616;39.786;2023-04-06T08:11:53;100414.06;;;21.27;31.46
49627;BME280;35527;54.616;39.786;2023-04-06T08:14:55;100422.16;;;20.27;33.47
49627;BME280;35527;54.616;39.786;2023-04-06T08:17:58;100419.72;;;20.11;32.93
49627;BME280;35527;54.616;39.786;2023-04-06T08:21:02;100422.97;;;20.89;31.75
49627;BME280;35527;54.616;39.786;2023-04-06T08:24:06;100429.41;;;21.69;30.88
49627;BME280;35527;54.616;39.786;2023-04-06T08:27:10;100417.50;;;21.98;30.51
49627;BME280;35527;54.616;39.786;2023-04-06T08:30:13;100429.50;;;22.59;29.94
49627;BME280;35527;54.616;39.786;2023-04-06T08:33:18;100423.03;;;23.71;28.71
49627;BME280;35527;54.616;39.786;2023-04-06T08:36:22;100420.09;;;23.95;28.12
49627;BME280;35527;54.616;39.786;2023-04-06T08:39:24;100419.16;;;23.96;28.24
49627;BME280;35527;54.616;39.786;2023-04-06T08:42:32;100428.63;;;23.77;28.19
49627;BME280;35527;54.616;39.786;2023-04-06T08:45:37;100421.34;;;23.91;27.94
49627;BME280;35527;54.616;39.786;2023-04-06T08:48:43;100417.19;;;24.49;27.37
49627;BME280;35527;54.616;39.786;2023-04-06T08:51:48;100417.09;;;24.09;28.01
49627;BME280;35527;54.616;39.786;2023-04-06T08:54:53;100415.13;;;23.06;29.37
49627;BME280;35527;54.616;39.786;2023-04-06T08:57:56;100416.16;;;22.71;28.83
49627;BME280;35527;54.616;39.786;2023-04-06T09:01:04;100420.13;;;22.66;29.72
49627;BME280;35527;54.616;39.786;2023-04-06T09:04:09;100413.75;;;22.80;29.74
49627;BME280;35527;54.616;39.786;2023-04-06T09:07:15;100399.78;;;22.34;29.92
49627;BME280;35527;54.616;39.786;2023-04-06T09:10:19;100408.81;;;22.98;29.24
49627;BME280;35527;54.616;39.786;2023-04-06T09:13:23;100399.50;;;23.47;28.86
49627;BME280;35527;54.616;39.786;2023-04-06T09:16:26;100397.28;;;23.52;28.95
49627;BME280;35527;54.616;39.786;2023-04-06T09:19:30;100398.28;;;22.86;29.08
49627;BME280;35527;54.616;39.786;2023-04-06T09:22:38;100399.34;;;22.84;29.91
49627;BME280;35527;54.616;39.786;2023-04-06T09:25:43;100384.63;;;23.97;28.19
49627;BME280;35527;54.616;39.786;2023-04-06T09:28:52;100392.97;;;24.73;26.39
49627;BME280;35527;54.616;39.786;2023-04-06T09:32:04;100388.78;;;24.61;26.91
49627;BME280;35527;54.616;39.786;2023-04-06T09:35:08;100386.84;;;24.83;26.84
49627;BME280;35527;54.616;39.786;2023-04-06T09:38:15;100382.13;;;24.86;26.62
49627;BME280;35527;54.616;39.786;2023-04-06T09:41:35;100385.66;;;25.16;25.28
49627;BME280;35527;54.616;39.786;2023-04-06T09:44:37;100381.91;;;25.19;25.40
49627;BME280;35527;54.616;39.786;2023-04-06T09:47:45;100384.88;;;25.62;25.20
49627;BME280;35527;54.616;39.786;2023-04-06T09:50:53;100388.72;;;25.31;25.77
49627;BME280;35527;54.616;39.786;2023-04-06T09:54:00;100391.41;;;24.52;26.63
49627;BME280;35527;54.616;39.786;2023-04-06T09:57:09;100379.47;;;24.77;26.73
49627;BME280;35527;54.616;39.786;2023-04-06T10:00:16;100381.09;;;24.48;26.30
49627;BME280;35527;54.616;39.786;2023-04-06T10:03:30;100375.47;;;24.42;26.55
49627;BME280;35527;54.616;39.786;2023-04-06T10:06:42;100383.97;;;24.36;26.17
49627;BME280;35527;54.616;39.786;2023-04-06T10:09:51;100379.06;;;24.41;26.74
49627;BME280;35527;54.616;39.786;2023-04-06T10:12:56;100376.56;;;23.99;26.91
49627;BME280;35527;54.616;39.786;2023-04-06T10:16:00;100373.84;;;23.79;27.38
49627;BME280;35527;54.616;39.786;2023-04-06T10:19:13;100379.03;;;23.49;27.64
49627;BME280;35527;54.616;39.786;2023-04-06T10:22:24;100380.06;;;23.15;28.38
49627;BME280;35527;54.616;39.786;2023-04-06T10:25:29;100387.28;;;23.13;28.38
49627;BME280;35527;54.616;39.786;2023-04-06T10:28:33;100382.00;;;23.13;28.33
49627;BME280;35527;54.616;39.786;2023-04-06T10:31:39;100385.22;;;23.17;28.06
49627;BME280;35527;54.616;39.786;2023-04-06T10:34:46;100385.13;;;23.07;28.02
49627;BME280;35527;54.616;39.786;2023-04-06T10:38:01;100383.59;;;23.26;27.85
49627;BME280;35527;54.616;39.786;2023-04-06T10:41:10;100385.09;;;23.39;27.92
49627;BME280;35527;54.616;39.786;2023-04-06T10:44:17;100379.81;;;23.19;28.46
49627;BME280;35527;54.616;39.786;2023-04-06T10:47:25;100388.25;;;22.58;29.05
49627;BME280;35527;54.616;39.786;2023-04-06T10:50:33;100387.66;;;21.75;30.77
49627;BME280;35527;54.616;39.786;2023-04-06T10:53:43;100383.59;;;21.94;29.99
49627;BME280;35527;54.616;39.786;2023-04-06T10:56:46;100386.22;;;22.16;30.13
49627;BME280;35527;54.616;39.786;2023-04-06T10:59:53;100387.31;;;22.47;29.52
49627;BME280;35527;54.616;39.786;2023-04-06T11:02:58;100389.38;;;22.21;29.10
49627;BME280;35527;54.616;39.786;2023-04-06T11:06:04;100379.25;;;21.81;30.62
49627;BME280;35527;54.616;39.786;2023-04-06T11:09:08;100381.84;;;21.48;31.05
49627;BME280;35527;54.616;39.786;2023-04-06T11:12:20;100383.56;;;21.82;30.72
49627;BME280;35527;54.616;39.786;2023-04-06T11:15:24;100379.38;;;22.14;29.21
49627;BME280;35527;54.616;39.786;2023-04-06T11:18:28;100390.44;;;22.53;29.48
49627;BME280;35527;54.616;39.786;2023-04-06T11:24:38;100387.34;;;22.25;29.86
49627;BME280;35527;54.616;39.786;2023-04-06T11:27:41;100381.97;;;21.22;30.93
49627;BME280;35527;54.616;39.786;2023-04-06T11:30:45;100375.72;;;21.12;31.02
49627;BME280;35527;54.616;39.786;2023-04-06T11:33:55;100384.00;;;21.19;31.72
49627;BME280;35527;54.616;39.786;2023-04-06T11:37:00;100385.25;;;21.37;31.06
49627;BME280;35527;54.616;39.786;2023-04-06T11:40:07;100389.44;;;21.75;30.61
49627;BME280;35527;54.616;39.786;2023-04-06T11:43:16;100384.41;;;21.94;30.14
49627;BME280;35527;54.616;39.786;2023-04-06T11:46:20;100376.69;;;21.57;30.78
49627;BME280;35527;54.616;39.786;2023-04-06T11:49:28;100383.84;;;21.09;31.04
49627;BME280;35527;54.616;39.786;2023-04-06T11:52:31;100373.50;;;20.95;31.97
49627;BME280;35527;54.616;39.786;2023-04-06T11:55:37;100373.00;;;20.40;31.92
49627;BME280;35527;54.616;39.786;2023-04-06T11:58:42;100368.88;;;20.12;33.00
49627;BME280;35527;54.616;39.786;2023-04-06T12:01:45;100366.88;;;20.02;32.28
49627;BME280;35527;54.616;39.786;2023-04-06T12:04:52;100376.56;;;19.89;32.90
49627;BME280;35527;54.616;39.786;2023-04-06T12:07:58;100367.81;;;20.01;32.23
49627;BME280;35527;54.616;39.786;2023-04-06T12:11:03;100367.09;;;19.87;32.00
49627;BME280;35527;54.616;39.786;2023-04-06T12:14:08;100374.66;;;20.04;32.92
49627;BME280;35527;54.616;39.786;2023-04-06T12:17:11;100372.66;;;20.08;31.80
49627;BME280;35527;54.616;39.786;2023-04-06T12:20:15;100369.19;;;20.07;32.26
49627;BME280;35527;54.616;39.786;2023-04-06T12:23:26;100370.97;;;19.94;32.96
49627;BME280;35527;54.616;39.786;2023-04-06T12:26:29;100364.88;;;19.93;32.14
49627;BME280;35527;54.616;39.786;2023-04-06T12:29:33;100373.19;;;19.87;33.03
49627;BME280;35527;54.616;39.786;2023-04-06T12:32:37;100370.44;;;19.63;32.50
49627;BME280;35527;54.616;39.786;2023-04-06T12:35:43;100365.88;;;19.40;33.13
49627;BME280;35527;54.616;39.786;2023-04-06T12:38:47;100347.50;;;19.27;33.69
49627;BME280;35527;54.616;39.786;2023-04-06T12:41:50;100367.25;;;19.05;33.46
49627;BME280;35527;54.616;39.786;2023-04-06T12:44:55;100355.84;;;19.19;34.31
49627;BME280;35527;54.616;39.786;2023-04-06T12:47:58;100370.19;;;18.74;34.05
49627;BME280;35527;54.616;39.786;2023-04-06T12:51:02;100364.72;;;18.35;34.42
49627;BME280;35527;54.616;39.786;2023-04-06T12:54:05;100343.34;;;18.14;34.10
49627;BME280;35527;54.616;39.786;2023-04-06T12:57:10;100356.31;;;18.30;34.63
49627;BME280;35527;54.616;39.786;2023-04-06T13:00:12;100362.28;;;18.46;34.23
49627;BME280;35527;54.616;39.786;2023-04-06T13:03:17;100361.69;;;18.56;33.20
49627;BME280;35527;54.616;39.786;2023-04-06T13:06:21;100363.28;;;18.58;33.33
49627;BME280;35527;54.616;39.786;2023-04-06T13:09:27;100359.38;;;18.37;33.87
49627;BME280;35527;54.616;39.786;2023-04-06T13:12:30;100364.44;;;18.26;34.60
49627;BME280;35527;54.616;39.786;2023-04-06T13:15:32;100359.97;;;18.28;34.06
49627;BME280;35527;54.616;39.786;2023-04-06T13:18:37;100364.56;;;18.24;34.14
49627;BME280;35527;54.616;39.786;2023-04-06T13:21:43;100353.44;;;18.06;34.56
49627;BME280;35527;54.616;39.786;2023-04-06T13:24:46;100351.09;;;18.01;34.53
49627;BME280;35527;54.616;39.786;2023-04-06T13:27:50;100356.22;;;17.74;34.89
49627;BME280;35527;54.616;39.786;2023-04-06T13:30:53;100353.19;;;17.52;35.55
49627;BME280;35527;54.616;39.786;2023-04-06T13:33:58;100355.13;;;17.34;36.17
49627;BME280;35527;54.616;39.786;2023-04-06T13:37:01;100354.00;;;17.38;35.81
49627;BME280;35527;54.616;39.786;2023-04-06T13:40:05;100357.84;;;17.47;35.41
49627;BME280;35527;54.616;39.786;2023-04-06T13:43:08;100352.22;;;17.39;35.02
49627;BME280;35527;54.616;39.786;2023-04-06T13:46:13;100350.75;;;17.49;35.90
49627;BME280;35527;54.616;39.786;2023-04-06T13:49:15;100353.38;;;17.49;35.46
49627;BME280;35527;54.616;39.786;2023-04-06T13:52:19;100344.66;;;17.34;35.41
49627;BME280;35527;54.616;39.786;2023-04-06T13:55:21;100353.97;;;17.24;36.01
49627;BME280;35527;54.616;39.786;2023-04-06T13:58:32;100349.16;;;16.86;35.95
49627;BME280;35527;54.616;39.786;2023-04-06T14:01:34;100355.31;;;16.69;36.24
49627;BME280;35527;54.616;39.786;2023-04-06T14:04:39;100359.16;;;16.62;35.78
49627;BME280;35527;54.616;39.786;2023-04-06T14:07:45;100350.75;;;16.57;36.37
49627;BME280;35527;54.616;39.786;2023-04-06T14:10:49;100353.78;;;16.49;37.42
49627;BME280;35527;54.616;39.786;2023-04-06T14:13:52;100349.81;;;16.42;36.78
49627;BME280;35527;54.616;39.786;2023-04-06T14:16:59;100353.34;;;16.25;36.76
49627;BME280;35527;54.616;39.786;2023-04-06T14:20:08;100348.88;;;16.11;37.79
49627;BME280;35527;54.616;39.786;2023-04-06T14:23:22;100350.22;;;16.18;37.92
49627;BME280;35527;54.616;39.786;2023-04-06T14:26:27;100348.28;;;16.06;37.63
49627;BME280;35527;54.616;39.786;2023-04-06T14:29:32;100354.00;;;15.97;38.75
49627;BME280;35527;54.616;39.786;2023-04-06T14:32:35;100346.38;;;15.92;38.05
49627;BME280;35527;54.616;39.786;2023-04-06T14:35:39;100358.84;;;15.87;37.81
49627;BME280;35527;54.616;39.786;2023-04-06T14:38:41;100345.34;;;15.79;37.38
49627;BME280;35527;54.616;39.786;2023-04-06T14:41:46;100344.19;;;15.67;37.34
49627;BME280;35527;54.616;39.786;2023-04-06T14:44:51;100346.44;;;15.58;38.49
49627;BME280;35527;54.616;39.786;2023-04-06T14:47:58;100348.50;;;15.51;38.61
49627;BME280;35527;54.616;39.786;2023-04-06T14:51:00;100345.28;;;15.46;38.96
49627;BME280;35527;54.616;39.786;2023-04-06T14:54:04;100344.81;;;15.38;38.48
49627;BME280;35527;54.616;39.786;2023-04-06T14:57:09;100339.53;;;15.22;39.33
49627;BME280;35527;54.616;39.786;2023-04-06T15:00:15;100349.09;;;15.04;40.38
49627;BME280;35527;54.616;39.786;2023-04-06T15:03:17;100346.13;;;14.94;39.70
49627;BME280;35527;54.616;39.786;2023-04-06T15:06:22;100357.84;;;14.85;40.50
49627;BME280;35527;54.616;39.786;2023-04-06T15:09:25;100357.50;;;14.74;39.64
49627;BME280;35527;54.616;39.786;2023-04-06T15:12:29;100360.41;;;14.68;40.53
49627;BME280;35527;54.616;39.786;2023-04-06T15:15:32;100362.56;;;14.58;41.34
49627;BME280;35527;54.616;39.786;2023-04-06T15:18:35;100367.16;;;14.53;41.15
49627;BME280;35527;54.616;39.786;2023-04-06T15:21:38;100368.31;;;14.46;40.49
49627;BME280;35527;54.616;39.786;2023-04-06T15:24:43;100359.72;;;14.44;40.71
49627;BME280;35527;54.616;39.786;2023-04-06T15:27:47;100358.34;;;14.37;41.14
49627;BME280;35527;54.616;39.786;2023-04-06T15:30:50;100370.91;;;14.08;41.80
49627;BME280;35527;54.616;39.786;2023-04-06T15:33:56;100375.41;;;14.05;41.71
49627;BME280;35527;54.616;39.786;2023-04-06T15:37:01;100373.56;;;13.88;42.30
49627;BME280;35527;54.616;39.786;2023-04-06T15:40:04;100381.69;;;13.80;41.97
49627;BME280;35527;54.616;39.786;2023-04-06T15:43:07;100388.00;;;13.74;41.81
49627;BME280;35527;54.616;39.786;2023-04-06T15:46:12;100387.28;;;13.71;41.82
49627;BME280;35527;54.616;39.786;2023-04-06T15:49:14;100387.66;;;13.62;42.53
49627;BME280;35527;54.616;39.786;2023-04-06T15:52:18;100393.13;;;13.56;42.00
49627;BME280;35527;54.616;39.786;2023-04-06T15:55:21;100386.50;;;13.48;42.41
49627;BME280;35527;54.616;39.786;2023-04-06T15:58:23;100405.00;;;13.41;42.24
49627;BME280;35527;54.616;39.786;2023-04-06T16:01:29;100401.00;;;13.34;42.47
49627;BME280;35527;54.616;39.786;2023-04-06T16:04:32;100401.69;;;13.15;43.15